createdAt,value
2023-01-29T00:02:11.225Z,101431.38
2023-01-29T00:05:10.024Z,101411.41
2023-01-29T00:08:05.594Z,101412.88
2023-01-29T00:10:54.093Z,101416.03
2023-01-29T00:13:42.627Z,101425.19
2023-01-29T00:16:32.574Z,101416.91
2023-01-29T00:19:21.092Z,101419.94
2023-01-29T00:22:10.419Z,101418.72
2023-01-29T00:24:59.187Z,101417.75
2023-01-29T00:27:47.624Z,101416.31
2023-01-29T00:30:36.986Z,101426.78
2023-01-29T00:33:26.791Z,101422.31
2023-01-29T00:36:17.063Z,101405.00
2023-01-29T00:39:10.611Z,101392.88
2023-01-29T00:42:16.816Z,101425.25
2023-01-29T00:45:06.166Z,101410.06
2023-01-29T00:47:54.606Z,101415.97
2023-01-29T00:50:44.544Z,101418.06
2023-01-29T00:53:32.960Z,101419.75
2023-01-29T00:56:21.390Z,101408.72
2023-01-29T00:59:09.910Z,101417.25
2023-01-29T01:02:15.787Z,101414.75
2023-01-29T01:05:06.051Z,101414.50
2023-01-29T01:07:57.593Z,101425.47
2023-01-29T01:10:45.082Z,101338.28
2023-01-29T01:13:34.340Z,101372.84
2023-01-29T01:16:22.981Z,101420.31
2023-01-29T01:19:11.649Z,101424.41
2023-01-29T01:22:00.164Z,101425.25
2023-01-29T01:24:50.400Z,101427.78
2023-01-29T01:27:41.106Z,101419.75
2023-01-29T01:30:29.724Z,101427.34
2023-01-29T01:33:18.425Z,101429.13
2023-01-29T01:36:09.804Z,101420.59
2023-01-29T01:38:58.302Z,101433.59
2023-01-29T01:41:48.135Z,101420.72
2023-01-29T01:44:56.524Z,101431.66
2023-01-29T01:47:48.432Z,101429.22
2023-01-29T01:50:40.693Z,101424.16
2023-01-29T01:53:32.224Z,101427.78
2023-01-29T01:56:24.643Z,101422.28
2023-01-29T01:59:15.943Z,101414.13
2023-01-29T02:02:21.815Z,101409.69
2023-01-29T02:05:29.028Z,101413.25
2023-01-29T02:08:37.404Z,101406.41
2023-01-29T02:11:25.858Z,101394.72
2023-01-29T02:14:15.670Z,101413.47
2023-01-29T02:17:04.312Z,101417.50
2023-01-29T02:20:03.093Z,101417.25
2023-01-29T02:23:13.810Z,101418.09
2023-01-29T02:26:11.518Z,101391.41
2023-01-29T02:29:22.412Z,101409.69
2023-01-29T02:32:18.068Z,101411.38
2023-01-29T02:35:28.526Z,101422.41
2023-01-29T02:38:22.378Z,101422.41
2023-01-29T02:41:14.963Z,101418.22
2023-01-29T02:44:09.800Z,101415.09
2023-01-29T02:47:02.107Z,101410.94
2023-01-29T02:49:53.822Z,101408.19
2023-01-29T02:52:49.717Z,101410.94
2023-01-29T02:55:41.424Z,101409.06
2023-01-29T02:58:32.382Z,101325.84
2023-01-29T03:01:26.001Z,101401.88
2023-01-29T03:04:19.675Z,101408.19
2023-01-29T03:07:22.456Z,101402.31
2023-01-29T03:10:16.914Z,101398.28
2023-01-29T03:13:11.737Z,101398.94
2023-01-29T03:16:03.029Z,101397.16
2023-01-29T03:18:57.119Z,101390.38
2023-01-29T03:21:55.348Z,101400.50
2023-01-29T03:25:05.289Z,101390.81
2023-01-29T03:28:14.928Z,101394.53
2023-01-29T03:31:23.616Z,101391.91
2023-01-29T03:34:18.131Z,101400.78
2023-01-29T03:37:09.851Z,101402.00
2023-01-29T03:39:58.460Z,101400.50
2023-01-29T03:42:56.849Z,101404.53
2023-01-29T03:45:53.649Z,101386.94
2023-01-29T03:48:48.099Z,101401.63
2023-01-29T03:51:39.447Z,101381.88
2023-01-29T03:54:33.375Z,101400.88
2023-01-29T03:57:29.853Z,101403.75
2023-01-29T04:00:21.197Z,101408.28
2023-01-29T04:03:15.597Z,101415.72
2023-01-29T04:06:10.680Z,101406.81
2023-01-29T04:09:05.032Z,101402.19
2023-01-29T04:11:58.667Z,101410.81
2023-01-29T04:14:48.124Z,101414.09
2023-01-29T04:17:40.424Z,101418.63
2023-01-29T04:20:29.194Z,101410.81
2023-01-29T04:23:22.521Z,101402.19
2023-01-29T04:26:24.749Z,101409.03
2023-01-29T04:29:23.075Z,101410.22
2023-01-29T04:32:16.415Z,101410.31
2023-01-29T04:35:11.218Z,101408.72
2023-01-29T04:38:08.100Z,101403.56
2023-01-29T04:41:04.241Z,101403.78
2023-01-29T04:44:00.801Z,101407.16
2023-01-29T04:46:53.551Z,101411.03
2023-01-29T04:49:46.434Z,101397.13
2023-01-29T04:52:43.256Z,101408.50
2023-01-29T04:55:37.514Z,101414.63
2023-01-29T04:58:29.446Z,101405.03
2023-01-29T05:01:20.489Z,101411.25
2023-01-29T05:04:12.152Z,101403.22
2023-01-29T05:07:03.326Z,101411.19
2023-01-29T05:09:52.356Z,101410.25
2023-01-29T05:12:41.667Z,101424.59
2023-01-29T05:15:34.860Z,101429.16
2023-01-29T05:18:25.039Z,101420.00
2023-01-29T05:21:13.869Z,101397.63
2023-01-29T05:24:10.755Z,101401.75
2023-01-29T05:27:16.660Z,101383.47
2023-01-29T05:30:06.074Z,101379.97
2023-01-29T05:32:54.563Z,101368.06
2023-01-29T05:35:44.546Z,101371.75
2023-01-29T05:38:33.046Z,101391.41
2023-01-29T05:41:22.101Z,101376.78
2023-01-29T05:44:10.871Z,101368.97
2023-01-29T05:46:59.422Z,101371.72
2023-01-29T05:49:47.902Z,101383.16
2023-01-29T05:52:37.739Z,101393.00
2023-01-29T05:55:26.318Z,101375.81
2023-01-29T05:58:15.192Z,101357.44
2023-01-29T06:01:11.199Z,101396.91
2023-01-29T06:03:59.703Z,101399.66
2023-01-29T06:06:48.186Z,101400.47
2023-01-29T06:09:38.030Z,101404.94
2023-01-29T06:12:27.829Z,101371.38
2023-01-29T06:15:16.589Z,101403.31
2023-01-29T06:18:05.271Z,101405.38
2023-01-29T06:20:53.739Z,101408.13
2023-01-29T06:23:42.576Z,101403.69
2023-01-29T06:26:32.449Z,101408.84
2023-01-29T06:29:20.920Z,101299.38
2023-01-29T06:32:09.452Z,101399.66
2023-01-29T06:34:57.961Z,101395.41
2023-01-29T06:37:46.482Z,101397.44
2023-01-29T06:40:35.000Z,101324.09
2023-01-29T06:43:25.276Z,101392.16
2023-01-29T06:46:13.896Z,101386.88
2023-01-29T06:49:02.399Z,101381.72
2023-01-29T06:51:50.891Z,101394.25
2023-01-29T06:54:39.328Z,101388.00
2023-01-29T06:57:29.850Z,101384.41
2023-01-29T07:00:20.468Z,101393.28
2023-01-29T07:03:11.624Z,101385.91
2023-01-29T07:06:00.136Z,101392.00
2023-01-29T07:08:48.665Z,101412.25
2023-01-29T07:11:38.023Z,101409.50
2023-01-29T07:14:26.464Z,101412.03
2023-01-29T07:17:16.262Z,101421.56
2023-01-29T07:20:05.887Z,101412.00
2023-01-29T07:22:54.374Z,101422.06
2023-01-29T07:25:42.954Z,101408.50
2023-01-29T07:28:31.446Z,101425.63
2023-01-29T07:31:20.214Z,101423.84
2023-01-29T07:34:10.165Z,101418.03
2023-01-29T07:36:58.620Z,101418.47
2023-01-29T07:39:47.661Z,101420.88
2023-01-29T07:42:36.094Z,101431.06
2023-01-29T07:45:24.596Z,101430.50
2023-01-29T07:48:14.089Z,101446.56
2023-01-29T07:51:03.981Z,101442.28
2023-01-29T07:53:53.358Z,101462.44
2023-01-29T07:56:41.826Z,101456.00
2023-01-29T07:59:30.326Z,101463.94
2023-01-29T08:02:19.004Z,101466.78
2023-01-29T08:05:08.596Z,101455.69
2023-01-29T08:08:06.530Z,101468.09
2023-01-29T08:10:56.161Z,101463.63
2023-01-29T08:13:45.661Z,101465.66
2023-01-29T08:16:34.237Z,101468.81
2023-01-29T08:19:23.430Z,101464.06
2023-01-29T08:22:11.879Z,101463.31
2023-01-29T08:25:08.174Z,101424.38
2023-01-29T08:27:57.749Z,101444.75
2023-01-29T08:30:46.255Z,101474.09
2023-01-29T08:36:43.202Z,101478.81
2023-01-29T08:39:33.094Z,101357.59
2023-01-29T08:42:23.544Z,101468.41
2023-01-29T08:45:12.833Z,101436.53
2023-01-29T08:48:01.307Z,101469.63
2023-01-29T08:50:49.806Z,101480.13
2023-01-29T08:53:38.230Z,101476.44
2023-01-29T08:56:26.816Z,101463.69
2023-01-29T08:59:16.897Z,101458.41
2023-01-29T09:02:05.391Z,101473.28
2023-01-29T09:04:53.957Z,101463.44
2023-01-29T09:07:42.693Z,101472.59
2023-01-29T09:10:31.329Z,101470.09
2023-01-29T09:13:19.963Z,101473.25
2023-01-29T09:16:10.523Z,101483.84
2023-01-29T09:18:59.029Z,101489.28
2023-01-29T09:21:47.548Z,101496.53
2023-01-29T09:24:35.998Z,101484.19
2023-01-29T09:27:24.865Z,101486.34
2023-01-29T09:30:13.973Z,101478.66
2023-01-29T09:33:03.976Z,101471.16
2023-01-29T09:35:52.445Z,101467.56
2023-01-29T09:38:41.067Z,101444.00
2023-01-29T09:41:39.823Z,101396.34
2023-01-29T09:44:39.663Z,101426.41
2023-01-29T09:47:28.813Z,101390.78
2023-01-29T09:50:21.304Z,101441.34
2023-01-29T09:53:16.949Z,101391.16
2023-01-29T09:56:07.202Z,101436.16
2023-01-29T09:59:00.468Z,101433.41
2023-01-29T10:01:57.011Z,101434.94
2023-01-29T10:04:56.985Z,101419.78
2023-01-29T10:08:11.142Z,101433.00
2023-01-29T10:11:08.173Z,101436.84
2023-01-29T10:14:05.247Z,101422.06
2023-01-29T10:17:04.196Z,101439.63
2023-01-29T10:20:07.927Z,101443.00
2023-01-29T10:23:17.059Z,101432.72
2023-01-29T10:26:05.689Z,101446.00
2023-01-29T10:28:56.591Z,101450.38
2023-01-29T10:31:47.748Z,101452.53
2023-01-29T10:34:39.619Z,101450.09
2023-01-29T10:37:36.153Z,101452.50
2023-01-29T10:40:30.285Z,101444.66
2023-01-29T10:43:23.453Z,101450.28
2023-01-29T10:46:19.172Z,101451.63
2023-01-29T10:49:17.702Z,101464.53
2023-01-29T10:52:13.016Z,101470.34
2023-01-29T10:55:09.618Z,101468.78
2023-01-29T10:58:06.802Z,101401.75
2023-01-29T11:00:55.384Z,101454.44
2023-01-29T11:03:44.091Z,101419.06
2023-01-29T11:06:34.064Z,101424.09
2023-01-29T11:09:29.360Z,101425.44
2023-01-29T11:12:20.949Z,101433.88
2023-01-29T11:15:17.928Z,101417.88
2023-01-29T11:18:10.599Z,101403.91
2023-01-29T11:21:03.610Z,101394.81
2023-01-29T11:23:52.617Z,101399.72
2023-01-29T11:26:42.505Z,101383.50
2023-01-29T11:29:35.382Z,101371.06
2023-01-29T11:32:31.569Z,101379.06
2023-01-29T11:35:22.605Z,101360.84
2023-01-29T11:38:20.817Z,101372.56
2023-01-29T11:41:18.103Z,101371.69
2023-01-29T11:44:19.126Z,101373.69
2023-01-29T11:47:19.412Z,101355.56
2023-01-29T11:50:22.051Z,101362.09
2023-01-29T11:53:24.530Z,101353.88
2023-01-29T11:56:21.352Z,101324.44
2023-01-29T11:59:27.253Z,101324.81
2023-01-29T12:02:23.778Z,101337.25
2023-01-29T12:05:17.799Z,101334.06
2023-01-29T12:08:16.700Z,101333.16
2023-01-29T12:11:13.891Z,101323.81
2023-01-29T12:14:03.632Z,101324.31
2023-01-29T12:16:55.448Z,101319.72
2023-01-29T12:19:46.379Z,101308.31
2023-01-29T12:22:41.868Z,101299.53
2023-01-29T12:25:40.355Z,101290.03
2023-01-29T12:28:47.938Z,101263.03
2023-01-29T12:31:41.810Z,101213.63
2023-01-29T12:34:38.273Z,101280.50
2023-01-29T12:37:31.820Z,101270.56
2023-01-29T12:40:22.945Z,101263.63
2023-01-29T12:43:17.107Z,101260.25
2023-01-29T12:46:07.917Z,101244.91
2023-01-29T12:48:57.736Z,101254.59
2023-01-29T12:51:54.332Z,101251.78
2023-01-29T12:54:45.882Z,101239.44
2023-01-29T12:57:41.251Z,101224.16
2023-01-29T13:00:32.906Z,101227.75
2023-01-29T13:03:25.443Z,101219.38
2023-01-29T13:06:17.166Z,101221.94
2023-01-29T13:09:07.867Z,101220.53
2023-01-29T13:12:01.547Z,101217.31
2023-01-29T13:14:55.305Z,101216.38
2023-01-29T13:17:45.896Z,101212.75
2023-01-29T13:20:35.338Z,101216.09
2023-01-29T13:23:29.679Z,101209.13
2023-01-29T13:26:22.562Z,101218.63
2023-01-29T13:29:22.198Z,101218.75
2023-01-29T13:32:12.073Z,101217.50
2023-01-29T13:35:03.923Z,101211.06
2023-01-29T13:37:54.649Z,101216.66
2023-01-29T13:40:50.033Z,101218.19
2023-01-29T13:43:39.930Z,101217.91
2023-01-29T13:46:29.846Z,101217.78
2023-01-29T13:49:28.948Z,101225.88
2023-01-29T13:52:24.508Z,101219.72
2023-01-29T13:55:23.913Z,101217.19
2023-01-29T13:58:16.957Z,101208.78
2023-01-29T14:01:05.791Z,101206.25
2023-01-29T14:04:04.801Z,101206.50
2023-01-29T14:06:57.347Z,101203.72
2023-01-29T14:10:14.362Z,101201.19
2023-01-29T14:13:27.408Z,101191.59
2023-01-29T14:16:36.142Z,101193.91
2023-01-29T14:19:25.637Z,101190.03
2023-01-29T14:22:22.728Z,101185.28
2023-01-29T14:25:18.495Z,101195.22
2023-01-29T14:28:15.905Z,101178.31
2023-01-29T14:31:04.972Z,101105.91
2023-01-29T14:33:53.880Z,101165.34
2023-01-29T14:36:43.491Z,101166.47
2023-01-29T14:39:36.655Z,101166.03
2023-01-29T14:42:27.336Z,101184.19
2023-01-29T14:45:24.676Z,101173.81
2023-01-29T14:48:38.496Z,101174.47
2023-01-29T14:51:28.174Z,101182.97
2023-01-29T14:54:22.304Z,101189.44
2023-01-29T14:57:14.440Z,101191.66
2023-01-29T15:00:05.380Z,101176.72
2023-01-29T15:03:01.639Z,101159.09
2023-01-29T15:05:50.931Z,101174.47
2023-01-29T15:08:42.786Z,101178.53
2023-01-29T15:11:35.490Z,101182.09
2023-01-29T15:14:31.140Z,101185.50
2023-01-29T15:17:24.319Z,101186.03
2023-01-29T15:20:28.145Z,101184.34
2023-01-29T15:23:27.556Z,101179.03
2023-01-29T15:26:20.197Z,101183.03
2023-01-29T15:29:23.373Z,101189.19
2023-01-29T15:32:20.122Z,101188.88
2023-01-29T15:35:10.717Z,101118.72
2023-01-29T15:38:00.173Z,101181.72
2023-01-29T15:40:56.513Z,101186.69
2023-01-29T15:43:46.732Z,101180.16
2023-01-29T15:46:37.061Z,101166.88
2023-01-29T15:49:31.900Z,101168.94
2023-01-29T15:52:25.346Z,101143.81
2023-01-29T15:55:16.106Z,101165.59
2023-01-29T15:58:07.543Z,101152.63
2023-01-29T16:00:58.016Z,101163.09
2023-01-29T16:03:47.718Z,101154.75
2023-01-29T16:06:40.288Z,101163.22
2023-01-29T16:09:30.020Z,101170.81
2023-01-29T16:12:18.671Z,101168.66
2023-01-29T16:15:08.670Z,101174.09
2023-01-29T16:17:57.440Z,101166.47
2023-01-29T16:20:47.323Z,101146.06
2023-01-29T16:23:41.960Z,101177.81
2023-01-29T16:26:34.231Z,101180.47
2023-01-29T16:29:25.037Z,101179.16
2023-01-29T16:32:13.971Z,101181.22
2023-01-29T16:35:02.672Z,101176.28
2023-01-29T16:38:03.195Z,101174.13
2023-01-29T16:41:07.657Z,101187.53
2023-01-29T16:43:58.251Z,101185.13
2023-01-29T16:46:47.994Z,101180.22
2023-01-29T16:49:50.816Z,101176.84
2023-01-29T16:52:39.369Z,101163.16
2023-01-29T16:55:34.179Z,101175.78
2023-01-29T16:58:28.191Z,101174.22
2023-01-29T17:01:16.740Z,101163.53
2023-01-29T17:04:09.910Z,101159.34
2023-01-29T17:07:00.952Z,101156.59
2023-01-29T17:09:51.707Z,101162.59
2023-01-29T17:12:40.285Z,101165.34
2023-01-29T17:15:34.516Z,101149.59
2023-01-29T17:18:24.810Z,101157.53
2023-01-29T17:21:13.384Z,101155.59
2023-01-29T17:24:01.855Z,101142.25
2023-01-29T17:26:50.454Z,101159.44
2023-01-29T17:29:39.978Z,101146.47
2023-01-29T17:32:43.911Z,101147.03
2023-01-29T17:35:33.748Z,101153.88
2023-01-29T17:38:26.243Z,101138.03
2023-01-29T17:41:19.366Z,101150.75
2023-01-29T17:44:07.819Z,101148.72
2023-01-29T17:46:56.316Z,101148.25
2023-01-29T17:49:46.351Z,101133.78
2023-01-29T17:52:34.817Z,101149.41
2023-01-29T17:55:23.441Z,101156.88
2023-01-29T17:58:16.183Z,101156.97
2023-01-29T18:01:04.885Z,101151.22
2023-01-29T18:03:53.543Z,101152.22
2023-01-29T18:06:44.915Z,101162.88
2023-01-29T18:09:33.448Z,101152.47
2023-01-29T18:12:21.900Z,101155.25
2023-01-29T18:15:11.601Z,101152.94
2023-01-29T18:18:00.456Z,101141.44
2023-01-29T18:20:49.111Z,101136.53
2023-01-29T18:23:38.944Z,101132.78
2023-01-29T18:26:27.629Z,101138.44
2023-01-29T18:29:16.443Z,101143.50
2023-01-29T18:32:05.552Z,101142.38
2023-01-29T18:34:54.639Z,101157.78
2023-01-29T18:37:43.192Z,101157.53
2023-01-29T18:40:33.510Z,101158.03
2023-01-29T18:43:25.457Z,101168.94
2023-01-29T18:46:14.903Z,101167.50
2023-01-29T18:49:03.563Z,101175.91
2023-01-29T18:51:52.075Z,101171.94
2023-01-29T18:54:40.555Z,101165.66
2023-01-29T18:58:28.591Z,101177.31
2023-01-29T19:00:39.383Z,101179.09
2023-01-29T19:03:27.968Z,101121.63
2023-01-29T19:06:16.530Z,101171.88
2023-01-29T19:09:05.301Z,101169.72
2023-01-29T19:11:53.813Z,101180.84
2023-01-29T19:14:43.785Z,101181.19
2023-01-29T19:17:32.727Z,101169.53
2023-01-29T19:20:21.388Z,101174.19
2023-01-29T19:23:10.083Z,101169.97
2023-01-29T19:25:58.784Z,101171.44
2023-01-29T19:28:47.384Z,101153.75
2023-01-29T19:31:37.348Z,101163.25
2023-01-29T19:34:26.756Z,101140.34
2023-01-29T19:37:15.398Z,101156.50
2023-01-29T19:40:04.149Z,101162.97
2023-01-29T19:42:55.013Z,101158.03
2023-01-29T19:45:50.281Z,101152.53
2023-01-29T19:48:40.571Z,101152.53
2023-01-29T19:51:29.351Z,101147.59
2023-01-29T19:54:18.272Z,101159.00
2023-01-29T19:57:07.583Z,101150.44
2023-01-29T19:59:56.135Z,101145.50
2023-01-29T20:02:44.719Z,101146.59
2023-01-29T20:05:37.427Z,101150.91
2023-01-29T20:08:26.267Z,101150.06
2023-01-29T20:11:15.261Z,101153.88
2023-01-29T20:14:03.938Z,101151.56
2023-01-29T20:16:52.448Z,101134.75
2023-01-29T20:19:41.026Z,101084.25
2023-01-29T20:22:31.145Z,101140.97
2023-01-29T20:25:19.683Z,101137.38
2023-01-29T20:28:11.591Z,101136.03
2023-01-29T20:31:00.509Z,101133.63
2023-01-29T20:33:49.096Z,101135.63
2023-01-29T20:36:37.621Z,101121.31
2023-01-29T20:39:30.779Z,101130.59
2023-01-29T20:42:19.418Z,101130.94
2023-01-29T20:45:08.545Z,101123.25
2023-01-29T20:47:58.487Z,101126.81
2023-01-29T20:50:47.088Z,101120.59
2023-01-29T20:53:35.622Z,101116.50
2023-01-29T20:56:38.169Z,101108.19
2023-01-29T20:59:32.860Z,101113.59
2023-01-29T21:02:21.385Z,101119.56
2023-01-29T21:05:12.474Z,101118.63
2023-01-29T21:08:00.958Z,101113.38
2023-01-29T21:10:50.479Z,101112.72
2023-01-29T21:13:40.498Z,101113.06
2023-01-29T21:16:29.364Z,101123.38
2023-01-29T21:19:18.069Z,101114.03
2023-01-29T21:22:06.716Z,101098.84
2023-01-29T21:24:55.202Z,101113.06
2023-01-29T21:27:43.731Z,101113.91
2023-01-29T21:30:33.886Z,101117.84
2023-01-29T21:33:22.409Z,101102.34
2023-01-29T21:36:11.288Z,101095.22
2023-01-29T21:38:59.871Z,101102.16
2023-01-29T21:42:08.438Z,101087.00
2023-01-29T21:44:57.008Z,101094.91
2023-01-29T21:47:47.027Z,101106.81
2023-01-29T21:50:35.653Z,101043.97
2023-01-29T21:53:24.140Z,101099.63
2023-01-29T21:56:12.644Z,101101.72
2023-01-29T21:59:02.339Z,101083.50
2023-01-29T22:01:50.940Z,101107.91
2023-01-29T22:04:40.911Z,101092.94
2023-01-29T22:07:29.948Z,101095.34
2023-01-29T22:10:19.925Z,101099.88
2023-01-29T22:13:08.949Z,101055.91
2023-01-29T22:15:57.433Z,101092.59
2023-01-29T22:18:45.936Z,101085.66
2023-01-29T22:21:36.065Z,101067.81
2023-01-29T22:24:24.666Z,101076.06
2023-01-29T22:27:13.501Z,101064.94
2023-01-29T22:30:02.130Z,100996.84
2023-01-29T22:32:50.755Z,101055.47
2023-01-29T22:35:39.371Z,101063.28
2023-01-29T22:38:29.258Z,101052.09
2023-01-29T22:41:17.723Z,101012.25
2023-01-29T22:44:06.370Z,101031.00
2023-01-29T22:46:54.918Z,101017.34
2023-01-29T22:49:45.464Z,101000.06
2023-01-29T22:52:38.535Z,101010.03
2023-01-29T22:55:28.464Z,101013.84
2023-01-29T22:58:16.929Z,101007.97
2023-01-29T23:01:05.861Z,101014.44
2023-01-29T23:03:54.547Z,101016.03
2023-01-29T23:06:44.123Z,101012.78
2023-01-29T23:09:32.629Z,101013.00
2023-01-29T23:12:22.439Z,100998.16
2023-01-29T23:15:11.154Z,101003.44
2023-01-29T23:17:59.606Z,100999.00
2023-01-29T23:20:48.159Z,100997.06
2023-01-29T23:23:37.757Z,100994.56
2023-01-29T23:26:43.900Z,101006.81
2023-01-29T23:29:33.742Z,101010.09
2023-01-29T23:32:22.542Z,100970.28
2023-01-29T23:35:11.283Z,101000.69
2023-01-29T23:37:59.788Z,100975.91
2023-01-29T23:40:48.673Z,100968.81
2023-01-29T23:43:37.167Z,100970.41
2023-01-29T23:46:27.085Z,100960.84
2023-01-29T23:49:15.576Z,100966.59
2023-01-29T23:52:04.252Z,100959.41
2023-01-29T23:54:52.785Z,100914.03
2023-01-29T23:57:41.298Z,100947.50
